Pomfret Center, CT (06259)

4:16 AM EDT on September 01, 2014 (GMT -0400)
Pomfret School | Change Station
CLOSE
Current Station
Personal Weather Station
Location: Pomfret, CT
Elevation: 577 ft
Nearby Weather Stations

Elev 577 ft 41.89 °N, 71.97 °W | Updated 4 seconds ago

Mostly Cloudy
Mostly Cloudy
69.1 °F
Feels Like 69.1 °F
N
0.0
Wind Variable Wind from SW
Gusts 1.0 mph

Today
High -- | Low -- °F
--% Chance of Precip.
Yesterday
High -- | Low -- °F
Precip. -- in
6:13 AM 7:21 PM
Waxing Crescent, 38% visible
Pressure 29.98 in
Visibility 0.5 miles
Clouds Mostly Cloudy 600 ft
Dew Point 67 °F
Humidity 93%
Rainfall 0.00 in
Snow Depth Not available.
UV 0 out of 12
Pollen 8.30 out of 12
Ozone Good
Flu Activity Not available.
SPECI KIJD 010800Z AUTO 00000KT 1/2SM FG BKN006 21/20 A2998 RMK AO2 T02060200

More Conditions Fewer Conditions

Pressure 29.98 in
Visibility 0.5 miles
Clouds Mostly Cloudy 600 ft
Dew Point 67 °F
Humidity 93%
Rainfall 0.00 in
Snow Depth Not available.
UV 0 out of 12
Pollen 8.30 out of 12
Ozone Good
Flu Activity Not available.
SPECI KIJD 010800Z AUTO 00000KT 1/2SM FG BKN006 21/20 A2998 RMK AO2 T02060200

More Conditions Fewer Conditions

10-Day Weather Forecast

Almanac

Astronomy

Sep. 01, 2014 Rise Set
Actual Time 6:13 AM EDT 7:21 PM EDT
Civil Twilight 5:45 AM EDT 7:50 PM EDT
Nautical Twilight 5:10 AM EDT 8:24 PM EDT
Astronomical Twilight 4:34 AM EDT 9:00 PM EDT
Moon 1:02 PM EDT 11:13 PM EDT
Length of Visible Light 14h 05m
Length of Day
13h 07m
Tomorrow will be 2m 42s shorter.
Waxing Crescent, 38% of the Moon is Illuminated
Today
Waxing Crescent
Sep 2
First Quarter
Sep 8
Full
Sep 15
Last Quarter
Sep 24
New

Today's Extremes

State Highs State Lows

Community

WunderPhotos

Upload Photos

1,749,175 photos uploaded!

Nearby

Air Quality

  Air Quality AQ Index Pollutant
Yesterday Good
OZONE
Current Good
OZONE
Monday Good
PM2.5
Monday Good
OZONE
Tuesday Moderate
OZONE
Tuesday Moderate
PM2.5

Snow Depth

Station Depth Elevation
No new snow has been reported.

Earthquake Activity

City Distance Mag. Time & Date
No recent earthquake activity has been reported nearby.
Minimum magnitude displayed is 2.5.

Coastal Water Temperatures

Place Temperature
New London, CT 71.1 °F
Newport, RI 70.0 °F
Quonset Point, RI 71.1 °F
Conimicut Light, RI 73.0 °F
Providence, RI 72.0 °F

Nearby Weather Stations